Aérodrome :
LOGIN :

S'inscrire | Disclaimer

   EN    FR    IT 

 










Légende :    VFR   VFR Marginal   IFR   IFR Intensif   IFR Très Intensif
Visi : 
Plafond : 
>= 8 km
>= 3000ft
5 à 8 km
1000 à 3000 ft
1500m à 5 km
500 à 1000 ft
800 à 1500m
200 à 500 ft
< 800m
< 200 ft
Symboles :   Orages  Brouillard  Fortes neiges  Fortes précipitations  Vent > 20 kt
SIGMETs :   Divers  Orages  Givrage  Turbulence  Onde Orograph.  Cendres Volcan.






- Altitude de l'aérodrome : 25 ft
- Code IATA : QCY


EGXC - RAF Coningsby

DERNIER METAR :
  • 261450Z 29017KT 9999 FEW024CB 08/M00 Q1003 TEMPO 7000 SHRA SCCT020CB RMK BLU TEMPO WHT

METARs EXPIRÉS :
  • 261420Z 28018KT 9999 FEW024CB SCT045 08/00 Q1002 TEMPO 7000 SHRA SCT020CB RMK BLU TEMPO WHT
  • 261350Z 28013KT 9999 VCSH SCT028 SCT045 08/00 Q1002 TEMPO 7000 SHRA BKN024CB RMK BLU TEMPO WHT
  • 261320Z 30013KT 9999 SCT040 08/00 Q1002 TEMPO SCT020 RMK BLU TEMPO WHT
  • 261250Z 28013KT 9999 SCT028 07/// Q1002 NOSIG RMK BLU BLU

TAF TAF EGXC
Valide du 26 à 15h jusqu'au 27 à 09h UTC


261335Z 2615/2709 28014KT 9999 FEW020
TEMPO 2615/2617 29015G25KT
PROB30
TEMPO 2615/2617 6000 SHRA BKN020CB
PROB40 2706/2709 2000 RASN BKN004



MET'MAP, la Météo Aéronautique d'un coup d'oeil ! - Copyright ORBIFLY Décembre 2007 - Disclaimer

ORBIFLY MET'MAP TEAM :

Programmation & Développement : Alexandra Zaïnal
Sur une idée originale de : Baudouin d'Aumeries
Assistance à la programmation : Marc-Olivier Méhu
Soutien technique & logistique : Manuel Goepfert

Contact : metmap@orbifly.com




SOURCES & CREDITS :

   NOAA